sensor_id;sensor_type;location;lat;lon;timestamp;temperature;humidity
75994;DHT22;64680;53.800;9.988;2024-01-10T00:01:17;-3.40;99.90
75994;DHT22;64680;53.800;9.988;2024-01-10T00:03:44;-3.40;99.90
75994;DHT22;64680;53.800;9.988;2024-01-10T00:06:12;-3.40;99.90
75994;DHT22;64680;53.800;9.988;2024-01-10T00:08:38;-3.40;99.90
75994;DHT22;64680;53.800;9.988;2024-01-10T00:11:04;-3.40;99.90
75994;DHT22;64680;53.800;9.988;2024-01-10T00:13:31;-3.40;99.90
75994;DHT22;64680;53.800;9.988;2024-01-10T00:15:57;-3.40;99.90
75994;DHT22;64680;53.800;9.988;2024-01-10T00:18:24;-3.40;99.90
75994;DHT22;64680;53.800;9.988;2024-01-10T00:20:53;-3.40;99.90
75994;DHT22;64680;53.800;9.988;2024-01-10T00:23:20;-3.40;99.90
75994;DHT22;64680;53.800;9.988;2024-01-10T00:25:47;-3.40;99.90
75994;DHT22;64680;53.800;9.988;2024-01-10T00:28:13;-3.40;99.90
75994;DHT22;64680;53.800;9.988;2024-01-10T00:30:39;-3.40;99.90
75994;DHT22;64680;53.800;9.988;2024-01-10T00:33:05;-3.40;99.90
75994;DHT22;64680;53.800;9.988;2024-01-10T00:35:31;-3.50;99.90
75994;DHT22;64680;53.800;9.988;2024-01-10T00:37:57;-3.50;99.90
75994;DHT22;64680;53.800;9.988;2024-01-10T00:40:23;-3.50;99.90
75994;DHT22;64680;53.800;9.988;2024-01-10T00:42:49;-3.50;99.90
75994;DHT22;64680;53.800;9.988;2024-01-10T00:45:16;-3.50;99.90
75994;DHT22;64680;53.800;9.988;2024-01-10T00:47:41;-3.50;99.90
75994;DHT22;64680;53.800;9.988;2024-01-10T00:50:08;-3.50;99.90
75994;DHT22;64680;53.800;9.988;2024-01-10T00:52:33;-3.50;99.90
75994;DHT22;64680;53.800;9.988;2024-01-10T00:54:59;-3.50;99.90
75994;DHT22;64680;53.800;9.988;2024-01-10T00:57:24;-3.50;99.90
75994;DHT22;64680;53.800;9.988;2024-01-10T00:59:50;-3.50;99.90
75994;DHT22;64680;53.800;9.988;2024-01-10T01:02:16;-3.50;99.90
75994;DHT22;64680;53.800;9.988;2024-01-10T01:04:42;-3.50;99.90
75994;DHT22;64680;53.800;9.988;2024-01-10T01:07:07;-3.50;99.90
75994;DHT22;64680;53.800;9.988;2024-01-10T01:09:33;-3.50;99.90
75994;DHT22;64680;53.800;9.988;2024-01-10T01:11:59;-3.40;99.90
75994;DHT22;64680;53.800;9.988;2024-01-10T01:14:25;-3.40;99.90
75994;DHT22;64680;53.800;9.988;2024-01-10T01:16:50;-3.40;99.90
75994;DHT22;64680;53.800;9.988;2024-01-10T01:19:16;-3.40;99.90
75994;DHT22;64680;53.800;9.988;2024-01-10T01:21:42;-3.40;99.90
75994;DHT22;64680;53.800;9.988;2024-01-10T01:24:08;-3.50;99.90
75994;DHT22;64680;53.800;9.988;2024-01-10T01:26:33;-3.50;99.90
75994;DHT22;64680;53.800;9.988;2024-01-10T01:28:59;-3.50;99.90
75994;DHT22;64680;53.800;9.988;2024-01-10T01:31:25;-3.50;99.90
75994;DHT22;64680;53.800;9.988;2024-01-10T01:33:50;-3.50;99.90
75994;DHT22;64680;53.800;9.988;2024-01-10T01:36:16;-3.50;99.90
75994;DHT22;64680;53.800;9.988;2024-01-10T01:38:41;-3.50;99.90
75994;DHT22;64680;53.800;9.988;2024-01-10T01:41:07;-3.50;99.90
75994;DHT22;64680;53.800;9.988;2024-01-10T01:43:33;-3.50;99.90
75994;DHT22;64680;53.800;9.988;2024-01-10T01:45:59;-3.50;99.90
75994;DHT22;64680;53.800;9.988;2024-01-10T01:48:25;-3.50;99.90
75994;DHT22;64680;53.800;9.988;2024-01-10T01:50:57;-3.60;99.90
75994;DHT22;64680;53.800;9.988;2024-01-10T01:53:29;-3.60;99.90
75994;DHT22;64680;53.800;9.988;2024-01-10T01:55:55;-3.60;99.90
75994;DHT22;64680;53.800;9.988;2024-01-10T01:58:22;-3.60;99.90
75994;DHT22;64680;53.800;9.988;2024-01-10T02:00:48;-3.70;99.90
75994;DHT22;64680;53.800;9.988;2024-01-10T02:03:14;-3.70;99.90
75994;DHT22;64680;53.800;9.988;2024-01-10T02:05:40;-3.70;99.90
75994;DHT22;64680;53.800;9.988;2024-01-10T02:08:06;-3.70;99.90
75994;DHT22;64680;53.800;9.988;2024-01-10T02:10:31;-3.70;99.90
75994;DHT22;64680;53.800;9.988;2024-01-10T02:12:57;-3.70;99.90
75994;DHT22;64680;53.800;9.988;2024-01-10T02:15:23;-3.80;99.90
75994;DHT22;64680;53.800;9.988;2024-01-10T02:17:49;-3.80;99.90
75994;DHT22;64680;53.800;9.988;2024-01-10T02:20:15;-3.90;99.90
75994;DHT22;64680;53.800;9.988;2024-01-10T02:22:46;-3.90;99.90
75994;DHT22;64680;53.800;9.988;2024-01-10T02:25:13;-3.90;99.90
75994;DHT22;64680;53.800;9.988;2024-01-10T02:27:40;-4.00;99.90
75994;DHT22;64680;53.800;9.988;2024-01-10T02:30:07;-4.00;99.90
75994;DHT22;64680;53.800;9.988;2024-01-10T02:32:33;-4.10;99.90
75994;DHT22;64680;53.800;9.988;2024-01-10T02:34:59;-4.10;99.90
75994;DHT22;64680;53.800;9.988;2024-01-10T02:37:25;-4.10;99.90
75994;DHT22;64680;53.800;9.988;2024-01-10T02:39:53;-4.10;99.90
75994;DHT22;64680;53.800;9.988;2024-01-10T02:42:18;-4.10;99.90
75994;DHT22;64680;53.800;9.988;2024-01-10T02:44:44;-4.10;99.90
75994;DHT22;64680;53.800;9.988;2024-01-10T02:47:11;-4.10;99.90
75994;DHT22;64680;53.800;9.988;2024-01-10T02:49:37;-4.20;99.90
75994;DHT22;64680;53.800;9.988;2024-01-10T02:52:03;-4.20;99.90
75994;DHT22;64680;53.800;9.988;2024-01-10T02:54:29;-4.30;99.90
75994;DHT22;64680;53.800;9.988;2024-01-10T02:56:57;-4.30;99.90
75994;DHT22;64680;53.800;9.988;2024-01-10T02:59:22;-4.30;99.90
75994;DHT22;64680;53.800;9.988;2024-01-10T03:01:48;-4.30;99.90
75994;DHT22;64680;53.800;9.988;2024-01-10T03:04:14;-4.40;99.90
75994;DHT22;64680;53.800;9.988;2024-01-10T03:06:39;-4.30;99.90
75994;DHT22;64680;53.800;9.988;2024-01-10T03:09:06;-4.40;99.80
75994;DHT22;64680;53.800;9.988;2024-01-10T03:11:32;-4.40;99.90
75994;DHT22;64680;53.800;9.988;2024-01-10T03:14:17;-4.40;99.90
75994;DHT22;64680;53.800;9.988;2024-01-10T03:16:43;-4.40;99.90
75994;DHT22;64680;53.800;9.988;2024-01-10T03:19:08;-4.40;99.90
75994;DHT22;64680;53.800;9.988;2024-01-10T03:21:34;-4.40;99.90
75994;DHT22;64680;53.800;9.988;2024-01-10T03:24:00;-4.40;99.90
75994;DHT22;64680;53.800;9.988;2024-01-10T03:26:27;-4.40;99.90
75994;DHT22;64680;53.800;9.988;2024-01-10T03:28:53;-4.40;99.90
75994;DHT22;64680;53.800;9.988;2024-01-10T03:31:19;-4.40;99.90
75994;DHT22;64680;53.800;9.988;2024-01-10T03:33:44;-4.40;99.90
75994;DHT22;64680;53.800;9.988;2024-01-10T03:36:16;-4.40;99.90
75994;DHT22;64680;53.800;9.988;2024-01-10T03:38:41;-4.40;99.90
75994;DHT22;64680;53.800;9.988;2024-01-10T03:41:07;-4.40;99.90
75994;DHT22;64680;53.800;9.988;2024-01-10T03:43:32;-4.40;99.90
75994;DHT22;64680;53.800;9.988;2024-01-10T03:45:58;-4.40;99.90
75994;DHT22;64680;53.800;9.988;2024-01-10T03:48:24;-4.50;99.90
75994;DHT22;64680;53.800;9.988;2024-01-10T03:50:50;-4.50;99.90
75994;DHT22;64680;53.800;9.988;2024-01-10T03:53:16;-4.50;99.90
75994;DHT22;64680;53.800;9.988;2024-01-10T03:55:41;-4.60;99.90
75994;DHT22;64680;53.800;9.988;2024-01-10T03:58:08;-4.70;99.90
75994;DHT22;64680;53.800;9.988;2024-01-10T04:00:33;-4.60;99.90
75994;DHT22;64680;53.800;9.988;2024-01-10T04:02:59;-4.60;99.90
75994;DHT22;64680;53.800;9.988;2024-01-10T04:05:24;-4.60;99.90
75994;DHT22;64680;53.800;9.988;2024-01-10T04:07:51;-4.60;99.90
75994;DHT22;64680;53.800;9.988;2024-01-10T04:10:17;-4.70;99.90
75994;DHT22;64680;53.800;9.988;2024-01-10T04:12:44;-4.70;99.90
75994;DHT22;64680;53.800;9.988;2024-01-10T04:15:10;-4.80;99.90
75994;DHT22;64680;53.800;9.988;2024-01-10T04:17:36;-4.80;99.90
75994;DHT22;64680;53.800;9.988;2024-01-10T04:20:02;-4.80;99.90
75994;DHT22;64680;53.800;9.988;2024-01-10T04:22:28;-4.70;99.90
75994;DHT22;64680;53.800;9.988;2024-01-10T04:24:56;-4.70;99.90
75994;DHT22;64680;53.800;9.988;2024-01-10T04:27:22;-4.70;99.90
75994;DHT22;64680;53.800;9.988;2024-01-10T04:29:48;-4.70;99.90
75994;DHT22;64680;53.800;9.988;2024-01-10T04:32:13;-4.80;99.90
75994;DHT22;64680;53.800;9.988;2024-01-10T04:34:39;-4.80;99.90
75994;DHT22;64680;53.800;9.988;2024-01-10T04:37:08;-4.80;99.80
75994;DHT22;64680;53.800;9.988;2024-01-10T04:39:34;-4.80;99.90
75994;DHT22;64680;53.800;9.988;2024-01-10T04:42:00;-4.70;99.90
75994;DHT22;64680;53.800;9.988;2024-01-10T04:44:25;-4.80;99.90
75994;DHT22;64680;53.800;9.988;2024-01-10T04:46:51;-4.70;99.90
75994;DHT22;64680;53.800;9.988;2024-01-10T04:49:17;-4.70;99.90
75994;DHT22;64680;53.800;9.988;2024-01-10T04:51:42;-4.80;99.40
75994;DHT22;64680;53.800;9.988;2024-01-10T04:54:08;-4.80;99.50
75994;DHT22;64680;53.800;9.988;2024-01-10T04:56:35;-4.80;99.20
75994;DHT22;64680;53.800;9.988;2024-01-10T04:59:02;-4.80;99.80
75994;DHT22;64680;53.800;9.988;2024-01-10T05:01:27;-4.80;98.50
75994;DHT22;64680;53.800;9.988;2024-01-10T05:03:53;-4.80;98.30
75994;DHT22;64680;53.800;9.988;2024-01-10T05:06:18;-4.80;99.30
75994;DHT22;64680;53.800;9.988;2024-01-10T05:08:44;-4.80;98.90
75994;DHT22;64680;53.800;9.988;2024-01-10T05:11:10;-4.70;99.40
75994;DHT22;64680;53.800;9.988;2024-01-10T05:13:36;-4.70;99.10
75994;DHT22;64680;53.800;9.988;2024-01-10T05:16:02;-4.70;99.10
75994;DHT22;64680;53.800;9.988;2024-01-10T05:18:27;-4.70;99.50
75994;DHT22;64680;53.800;9.988;2024-01-10T05:20:53;-4.70;99.70
75994;DHT22;64680;53.800;9.988;2024-01-10T05:23:18;-4.70;99.90
75994;DHT22;64680;53.800;9.988;2024-01-10T05:25:44;-4.60;99.90
75994;DHT22;64680;53.800;9.988;2024-01-10T05:28:10;-4.60;99.90
75994;DHT22;64680;53.800;9.988;2024-01-10T05:30:35;-4.60;99.90
75994;DHT22;64680;53.800;9.988;2024-01-10T05:33:01;-4.60;99.90
75994;DHT22;64680;53.800;9.988;2024-01-10T05:35:26;-4.50;99.90
75994;DHT22;64680;53.800;9.988;2024-01-10T05:37:52;-4.40;99.90
75994;DHT22;64680;53.800;9.988;2024-01-10T05:40:18;-4.50;99.90
75994;DHT22;64680;53.800;9.988;2024-01-10T05:42:44;-4.50;99.90
75994;DHT22;64680;53.800;9.988;2024-01-10T05:45:10;-4.40;99.90
75994;DHT22;64680;53.800;9.988;2024-01-10T05:47:35;-4.40;99.70
75994;DHT22;64680;53.800;9.988;2024-01-10T05:50:02;-4.40;99.70
75994;DHT22;64680;53.800;9.988;2024-01-10T05:52:27;-4.40;99.80
75994;DHT22;64680;53.800;9.988;2024-01-10T05:54:53;-4.40;99.40
75994;DHT22;64680;53.800;9.988;2024-01-10T05:57:19;-4.40;98.50
75994;DHT22;64680;53.800;9.988;2024-01-10T05:59:46;-4.40;99.10
75994;DHT22;64680;53.800;9.988;2024-01-10T06:02:12;-4.40;99.10
75994;DHT22;64680;53.800;9.988;2024-01-10T06:04:37;-4.40;99.30
75994;DHT22;64680;53.800;9.988;2024-01-10T06:07:03;-4.30;99.20
75994;DHT22;64680;53.800;9.988;2024-01-10T06:09:29;-4.30;99.20
75994;DHT22;64680;53.800;9.988;2024-01-10T06:11:54;-4.30;99.30
75994;DHT22;64680;53.800;9.988;2024-01-10T06:14:20;-4.30;99.10
75994;DHT22;64680;53.800;9.988;2024-01-10T06:16:46;-4.30;99.40
75994;DHT22;64680;53.800;9.988;2024-01-10T06:19:11;-4.30;99.20
75994;DHT22;64680;53.800;9.988;2024-01-10T06:21:38;-4.30;98.80
75994;DHT22;64680;53.800;9.988;2024-01-10T06:24:04;-4.30;98.90
75994;DHT22;64680;53.800;9.988;2024-01-10T06:26:29;-4.30;99.10
75994;DHT22;64680;53.800;9.988;2024-01-10T06:28:55;-4.30;98.80
75994;DHT22;64680;53.800;9.988;2024-01-10T06:31:21;-4.20;99.00
75994;DHT22;64680;53.800;9.988;2024-01-10T06:33:46;-4.20;99.50
75994;DHT22;64680;53.800;9.988;2024-01-10T06:36:12;-4.20;99.30
75994;DHT22;64680;53.800;9.988;2024-01-10T06:38:39;-4.10;99.80
75994;DHT22;64680;53.800;9.988;2024-01-10T06:41:08;-4.10;99.80
75994;DHT22;64680;53.800;9.988;2024-01-10T06:43:35;-4.10;99.50
75994;DHT22;64680;53.800;9.988;2024-01-10T06:46:01;-4.00;99.70
75994;DHT22;64680;53.800;9.988;2024-01-10T06:48:28;-4.00;99.80
75994;DHT22;64680;53.800;9.988;2024-01-10T06:50:55;-3.90;99.90
75994;DHT22;64680;53.800;9.988;2024-01-10T06:53:21;-3.90;99.90
75994;DHT22;64680;53.800;9.988;2024-01-10T06:55:47;-3.80;99.90
75994;DHT22;64680;53.800;9.988;2024-01-10T06:58:12;-3.80;99.90
75994;DHT22;64680;53.800;9.988;2024-01-10T07:00:38;-3.70;99.90
75994;DHT22;64680;53.800;9.988;2024-01-10T07:03:04;-3.70;99.90
75994;DHT22;64680;53.800;9.988;2024-01-10T07:05:29;-3.60;99.90
75994;DHT22;64680;53.800;9.988;2024-01-10T07:07:57;-3.60;99.90
75994;DHT22;64680;53.800;9.988;2024-01-10T07:10:23;-3.60;99.90
75994;DHT22;64680;53.800;9.988;2024-01-10T07:12:53;-3.50;99.90
75994;DHT22;64680;53.800;9.988;2024-01-10T07:15:19;-3.50;99.90
75994;DHT22;64680;53.800;9.988;2024-01-10T07:17:44;-3.50;99.90
75994;DHT22;64680;53.800;9.988;2024-01-10T07:20:11;-3.40;99.90
75994;DHT22;64680;53.800;9.988;2024-01-10T07:22:37;-3.40;99.60
75994;DHT22;64680;53.800;9.988;2024-01-10T07:25:07;-3.40;99.70
75994;DHT22;64680;53.800;9.988;2024-01-10T07:27:33;-3.40;99.60
75994;DHT22;64680;53.800;9.988;2024-01-10T07:29:59;-3.40;99.60
75994;DHT22;64680;53.800;9.988;2024-01-10T07:32:25;-3.30;99.70
75994;DHT22;64680;53.800;9.988;2024-01-10T07:34:51;-3.30;99.50
75994;DHT22;64680;53.800;9.988;2024-01-10T07:37:16;-3.30;99.70
75994;DHT22;64680;53.800;9.988;2024-01-10T07:39:46;-3.30;99.20
75994;DHT22;64680;53.800;9.988;2024-01-10T07:42:12;-3.30;99.20
75994;DHT22;64680;53.800;9.988;2024-01-10T07:44:37;-3.20;99.20
75994;DHT22;64680;53.800;9.988;2024-01-10T07:47:03;-3.20;98.80
75994;DHT22;64680;53.800;9.988;2024-01-10T07:49:29;-3.20;98.60
75994;DHT22;64680;53.800;9.988;2024-01-10T07:51:55;-3.20;98.40
75994;DHT22;64680;53.800;9.988;2024-01-10T07:54:21;-3.20;97.40
75994;DHT22;64680;53.800;9.988;2024-01-10T07:56:46;-3.10;97.70
75994;DHT22;64680;53.800;9.988;2024-01-10T07:59:12;-3.10;97.30
75994;DHT22;64680;53.800;9.988;2024-01-10T08:01:43;-3.20;97.00
75994;DHT22;64680;53.800;9.988;2024-01-10T08:04:10;-3.10;96.90
75994;DHT22;64680;53.800;9.988;2024-01-10T08:06:35;-3.10;96.50
75994;DHT22;64680;53.800;9.988;2024-01-10T08:09:01;-3.10;96.70
75994;DHT22;64680;53.800;9.988;2024-01-10T08:11:29;-3.10;96.20
75994;DHT22;64680;53.800;9.988;2024-01-10T08:13:55;-3.10;96.40
75994;DHT22;64680;53.800;9.988;2024-01-10T08:16:20;-3.00;96.00
75994;DHT22;64680;53.800;9.988;2024-01-10T08:18:46;-3.00;95.40
75994;DHT22;64680;53.800;9.988;2024-01-10T08:21:12;-3.00;94.80
75994;DHT22;64680;53.800;9.988;2024-01-10T08:23:37;-3.00;94.60
75994;DHT22;64680;53.800;9.988;2024-01-10T08:26:06;-2.90;94.30
75994;DHT22;64680;53.800;9.988;2024-01-10T08:28:33;-2.90;93.90
75994;DHT22;64680;53.800;9.988;2024-01-10T08:30:59;-2.90;93.80
75994;DHT22;64680;53.800;9.988;2024-01-10T08:33:24;-2.80;93.20
75994;DHT22;64680;53.800;9.988;2024-01-10T08:35:50;-2.80;92.90
75994;DHT22;64680;53.800;9.988;2024-01-10T08:38:16;-2.70;92.80
75994;DHT22;64680;53.800;9.988;2024-01-10T08:40:41;-2.70;92.10
75994;DHT22;64680;53.800;9.988;2024-01-10T08:43:07;-2.60;91.90
75994;DHT22;64680;53.800;9.988;2024-01-10T08:45:33;-2.60;90.80
75994;DHT22;64680;53.800;9.988;2024-01-10T08:47:58;-2.60;89.80
75994;DHT22;64680;53.800;9.988;2024-01-10T08:50:24;-2.60;89.40
75994;DHT22;64680;53.800;9.988;2024-01-10T08:52:50;-2.60;88.90
75994;DHT22;64680;53.800;9.988;2024-01-10T08:55:16;-2.50;89.40
75994;DHT22;64680;53.800;9.988;2024-01-10T08:57:41;-2.50;88.50
75994;DHT22;64680;53.800;9.988;2024-01-10T09:00:07;-2.50;87.20
75994;DHT22;64680;53.800;9.988;2024-01-10T09:02:37;-2.50;86.60
75994;DHT22;64680;53.800;9.988;2024-01-10T09:05:03;-2.50;85.90
75994;DHT22;64680;53.800;9.988;2024-01-10T09:07:29;-2.40;84.70
75994;DHT22;64680;53.800;9.988;2024-01-10T09:09:55;-2.40;85.00
75994;DHT22;64680;53.800;9.988;2024-01-10T09:12:21;-2.30;84.20
75994;DHT22;64680;53.800;9.988;2024-01-10T09:14:46;-2.30;83.70
75994;DHT22;64680;53.800;9.988;2024-01-10T09:17:12;-2.30;82.30
75994;DHT22;64680;53.800;9.988;2024-01-10T09:19:38;-2.30;81.00
75994;DHT22;64680;53.800;9.988;2024-01-10T09:22:03;-2.30;79.10
75994;DHT22;64680;53.800;9.988;2024-01-10T09:24:29;-2.40;80.20
75994;DHT22;64680;53.800;9.988;2024-01-10T09:26:55;-2.30;79.10
75994;DHT22;64680;53.800;9.988;2024-01-10T09:29:22;-2.30;79.10
75994;DHT22;64680;53.800;9.988;2024-01-10T09:31:48;-2.30;77.70
75994;DHT22;64680;53.800;9.988;2024-01-10T09:34:13;-2.30;78.60
75994;DHT22;64680;53.800;9.988;2024-01-10T09:36:39;-2.30;79.90
75994;DHT22;64680;53.800;9.988;2024-01-10T09:39:05;-2.30;79.70
75994;DHT22;64680;53.800;9.988;2024-01-10T09:41:33;-2.30;76.80
75994;DHT22;64680;53.800;9.988;2024-01-10T09:44:00;-2.40;77.10
75994;DHT22;64680;53.800;9.988;2024-01-10T09:46:26;-2.40;77.40
75994;DHT22;64680;53.800;9.988;2024-01-10T09:48:55;-2.40;76.40
75994;DHT22;64680;53.800;9.988;2024-01-10T09:51:21;-2.40;77.10
75994;DHT22;64680;53.800;9.988;2024-01-10T09:53:48;-2.40;78.40
75994;DHT22;64680;53.800;9.988;2024-01-10T09:56:15;-2.40;75.70
75994;DHT22;64680;53.800;9.988;2024-01-10T09:58:44;-2.50;75.50
75994;DHT22;64680;53.800;9.988;2024-01-10T10:01:11;-2.40;77.20
75994;DHT22;64680;53.800;9.988;2024-01-10T10:03:37;-2.40;77.90
75994;DHT22;64680;53.800;9.988;2024-01-10T10:06:07;-2.50;77.60
75994;DHT22;64680;53.800;9.988;2024-01-10T10:08:33;-2.40;77.00
75994;DHT22;64680;53.800;9.988;2024-01-10T10:10:58;-2.40;77.70
75994;DHT22;64680;53.800;9.988;2024-01-10T10:13:29;-2.30;78.10
75994;DHT22;64680;53.800;9.988;2024-01-10T10:15:59;-2.30;75.90
75994;DHT22;64680;53.800;9.988;2024-01-10T10:18:25;-2.30;73.60
75994;DHT22;64680;53.800;9.988;2024-01-10T10:21:09;-2.30;73.50
75994;DHT22;64680;53.800;9.988;2024-01-10T10:23:37;-2.30;72.20
75994;DHT22;64680;53.800;9.988;2024-01-10T10:26:13;-2.30;72.00
75994;DHT22;64680;53.800;9.988;2024-01-10T10:28:45;-2.20;71.30
75994;DHT22;64680;53.800;9.988;2024-01-10T10:31:11;-2.30;70.70
75994;DHT22;64680;53.800;9.988;2024-01-10T10:33:37;-2.30;71.80
75994;DHT22;64680;53.800;9.988;2024-01-10T10:36:03;-2.30;72.50
75994;DHT22;64680;53.800;9.988;2024-01-10T10:38:31;-2.20;72.30
75994;DHT22;64680;53.800;9.988;2024-01-10T10:40:59;-2.20;68.10
75994;DHT22;64680;53.800;9.988;2024-01-10T10:43:25;-2.10;69.50
75994;DHT22;64680;53.800;9.988;2024-01-10T10:45:51;-2.10;68.40
75994;DHT22;64680;53.800;9.988;2024-01-10T10:48:18;-2.10;69.00
75994;DHT22;64680;53.800;9.988;2024-01-10T10:50:55;-2.00;69.80
75994;DHT22;64680;53.800;9.988;2024-01-10T10:53:25;-2.00;67.70
75994;DHT22;64680;53.800;9.988;2024-01-10T10:55:53;-2.10;64.20
75994;DHT22;64680;53.800;9.988;2024-01-10T10:58:20;-2.20;64.00
75994;DHT22;64680;53.800;9.988;2024-01-10T11:00:47;-2.10;64.00
75994;DHT22;64680;53.800;9.988;2024-01-10T11:03:13;-2.10;64.00
75994;DHT22;64680;53.800;9.988;2024-01-10T11:05:40;-2.10;61.30
75994;DHT22;64680;53.800;9.988;2024-01-10T11:08:08;-2.10;61.90
75994;DHT22;64680;53.800;9.988;2024-01-10T11:10:38;-2.10;61.50
75994;DHT22;64680;53.800;9.988;2024-01-10T11:18:55;-2.10;62.90
75994;DHT22;64680;53.800;9.988;2024-01-10T11:22:08;-2.00;63.10
75994;DHT22;64680;53.800;9.988;2024-01-10T11:24:29;-2.10;62.90
75994;DHT22;64680;53.800;9.988;2024-01-10T11:27:12;-2.20;60.80
75994;DHT22;64680;53.800;9.988;2024-01-10T11:29:38;-2.20;60.20
75994;DHT22;64680;53.800;9.988;2024-01-10T11:32:17;-2.20;62.20
75994;DHT22;64680;53.800;9.988;2024-01-10T11:34:57;-2.20;59.40
75994;DHT22;64680;53.800;9.988;2024-01-10T11:37:45;-2.30;60.00
75994;DHT22;64680;53.800;9.988;2024-01-10T11:40:12;-2.20;61.60
75994;DHT22;64680;53.800;9.988;2024-01-10T11:42:47;-2.20;60.10
75994;DHT22;64680;53.800;9.988;2024-01-10T11:45:37;-2.30;58.90
75994;DHT22;64680;53.800;9.988;2024-01-10T11:48:02;-2.30;60.90
75994;DHT22;64680;53.800;9.988;2024-01-10T11:50:29;-2.20;62.40
75994;DHT22;64680;53.800;9.988;2024-01-10T11:52:56;-2.00;61.50
75994;DHT22;64680;53.800;9.988;2024-01-10T11:55:48;-1.90;60.40
75994;DHT22;64680;53.800;9.988;2024-01-10T11:58:14;-1.80;59.60
75994;DHT22;64680;53.800;9.988;2024-01-10T12:00:40;-1.70;57.70
75994;DHT22;64680;53.800;9.988;2024-01-10T12:03:07;-1.70;54.70
75994;DHT22;64680;53.800;9.988;2024-01-10T12:05:34;-1.70;54.60
75994;DHT22;64680;53.800;9.988;2024-01-10T12:08:00;-1.50;55.30
75994;DHT22;64680;53.800;9.988;2024-01-10T12:10:26;-1.50;53.70
75994;DHT22;64680;53.800;9.988;2024-01-10T12:12:52;-1.40;53.40
75994;DHT22;64680;53.800;9.988;2024-01-10T12:15:20;-1.30;55.90
75994;DHT22;64680;53.800;9.988;2024-01-10T12:17:46;-1.30;50.30
75994;DHT22;64680;53.800;9.988;2024-01-10T12:20:11;-1.50;48.90
75994;DHT22;64680;53.800;9.988;2024-01-10T12:22:37;-1.60;48.30
75994;DHT22;64680;53.800;9.988;2024-01-10T12:25:06;-1.70;50.50
75994;DHT22;64680;53.800;9.988;2024-01-10T12:27:32;-1.60;50.90
75994;DHT22;64680;53.800;9.988;2024-01-10T12:30:00;-1.60;50.90
75994;DHT22;64680;53.800;9.988;2024-01-10T12:32:28;-1.60;51.20
75994;DHT22;64680;53.800;9.988;2024-01-10T12:34:59;-1.60;50.00
75994;DHT22;64680;53.800;9.988;2024-01-10T12:37:25;-1.60;50.40
75994;DHT22;64680;53.800;9.988;2024-01-10T12:39:51;-1.60;49.20
75994;DHT22;64680;53.800;9.988;2024-01-10T12:42:16;-1.60;50.20
75994;DHT22;64680;53.800;9.988;2024-01-10T12:44:48;-1.70;49.70
75994;DHT22;64680;53.800;9.988;2024-01-10T12:47:20;-1.70;48.60
75994;DHT22;64680;53.800;9.988;2024-01-10T12:49:47;-1.60;51.20
75994;DHT22;64680;53.800;9.988;2024-01-10T12:52:13;-1.60;50.20
75994;DHT22;64680;53.800;9.988;2024-01-10T12:54:39;-1.70;49.70
75994;DHT22;64680;53.800;9.988;2024-01-10T12:57:05;-1.70;47.30
75994;DHT22;64680;53.800;9.988;2024-01-10T12:59:32;-1.70;49.30
75994;DHT22;64680;53.800;9.988;2024-01-10T13:01:58;-1.70;49.90
75994;DHT22;64680;53.800;9.988;2024-01-10T13:04:23;-1.60;49.70
75994;DHT22;64680;53.800;9.988;2024-01-10T13:06:49;-1.60;50.10
75994;DHT22;64680;53.800;9.988;2024-01-10T13:09:15;-1.70;49.20
75994;DHT22;64680;53.800;9.988;2024-01-10T13:11:41;-1.80;48.10
75994;DHT22;64680;53.800;9.988;2024-01-10T13:14:06;-1.80;49.80
75994;DHT22;64680;53.800;9.988;2024-01-10T13:16:32;-1.90;51.00
75994;DHT22;64680;53.800;9.988;2024-01-10T13:18:58;-1.90;51.90
75994;DHT22;64680;53.800;9.988;2024-01-10T13:21:25;-2.00;52.80
75994;DHT22;64680;53.800;9.988;2024-01-10T13:23:51;-1.90;53.50
75994;DHT22;64680;53.800;9.988;2024-01-10T13:26:17;-2.00;51.70
75994;DHT22;64680;53.800;9.988;2024-01-10T13:28:43;-2.10;52.00
75994;DHT22;64680;53.800;9.988;2024-01-10T13:31:09;-2.10;53.80
75994;DHT22;64680;53.800;9.988;2024-01-10T13:33:35;-2.10;54.50
75994;DHT22;64680;53.800;9.988;2024-01-10T13:36:01;-2.10;53.90
75994;DHT22;64680;53.800;9.988;2024-01-10T13:38:26;-2.00;54.90
75994;DHT22;64680;53.800;9.988;2024-01-10T13:40:52;-2.00;54.50
75994;DHT22;64680;53.800;9.988;2024-01-10T13:43:18;-2.00;54.00
75994;DHT22;64680;53.800;9.988;2024-01-10T13:45:43;-2.20;53.30
75994;DHT22;64680;53.800;9.988;2024-01-10T13:48:09;-2.30;55.30
75994;DHT22;64680;53.800;9.988;2024-01-10T13:50:35;-2.30;58.00
75994;DHT22;64680;53.800;9.988;2024-01-10T13:53:01;-2.40;59.10
75994;DHT22;64680;53.800;9.988;2024-01-10T13:55:29;-2.30;60.70
75994;DHT22;64680;53.800;9.988;2024-01-10T13:57:55;-2.30;60.90
75994;DHT22;64680;53.800;9.988;2024-01-10T14:00:21;-2.20;61.90
75994;DHT22;64680;53.800;9.988;2024-01-10T14:02:47;-2.10;62.10
75994;DHT22;64680;53.800;9.988;2024-01-10T14:05:13;-2.20;58.80
75994;DHT22;64680;53.800;9.988;2024-01-10T14:07:39;-2.30;59.10
75994;DHT22;64680;53.800;9.988;2024-01-10T14:10:05;-2.30;60.50
75994;DHT22;64680;53.800;9.988;2024-01-10T14:12:31;-2.40;61.80
75994;DHT22;64680;53.800;9.988;2024-01-10T14:14:57;-2.30;63.60
75994;DHT22;64680;53.800;9.988;2024-01-10T14:17:24;-2.40;61.80
75994;DHT22;64680;53.800;9.988;2024-01-10T14:19:51;-2.50;60.20
75994;DHT22;64680;53.800;9.988;2024-01-10T14:22:17;-2.50;61.20
75994;DHT22;64680;53.800;9.988;2024-01-10T14:24:43;-2.50;63.00
75994;DHT22;64680;53.800;9.988;2024-01-10T14:27:09;-2.50;63.60
75994;DHT22;64680;53.800;9.988;2024-01-10T14:29:34;-2.50;65.10
75994;DHT22;64680;53.800;9.988;2024-01-10T14:32:00;-2.50;64.00
75994;DHT22;64680;53.800;9.988;2024-01-10T14:34:26;-2.50;64.00
75994;DHT22;64680;53.800;9.988;2024-01-10T14:36:51;-2.50;65.30
75994;DHT22;64680;53.800;9.988;2024-01-10T14:39:17;-2.50;65.40
75994;DHT22;64680;53.800;9.988;2024-01-10T14:41:43;-2.50;64.80
75994;DHT22;64680;53.800;9.988;2024-01-10T14:44:10;-2.50;64.10
75994;DHT22;64680;53.800;9.988;2024-01-10T14:46:35;-2.60;64.80
75994;DHT22;64680;53.800;9.988;2024-01-10T14:49:01;-2.50;65.30
75994;DHT22;64680;53.800;9.988;2024-01-10T14:51:27;-2.50;65.90
75994;DHT22;64680;53.800;9.988;2024-01-10T14:53:52;-2.50;65.90
75994;DHT22;64680;53.800;9.988;2024-01-10T14:56:18;-2.50;66.20
75994;DHT22;64680;53.800;9.988;2024-01-10T14:58:44;-2.60;65.90
75994;DHT22;64680;53.800;9.988;2024-01-10T15:01:10;-2.60;66.30
75994;DHT22;64680;53.800;9.988;2024-01-10T15:03:36;-2.50;67.00
75994;DHT22;64680;53.800;9.988;2024-01-10T15:06:04;-2.60;67.60
75994;DHT22;64680;53.800;9.988;2024-01-10T15:08:30;-2.60;66.60
75994;DHT22;64680;53.800;9.988;2024-01-10T15:10:56;-2.60;67.50
75994;DHT22;64680;53.800;9.988;2024-01-10T15:13:21;-2.60;67.80
75994;DHT22;64680;53.800;9.988;2024-01-10T15:15:48;-2.60;68.30
75994;DHT22;64680;53.800;9.988;2024-01-10T15:18:14;-2.60;67.40
75994;DHT22;64680;53.800;9.988;2024-01-10T15:20:40;-2.60;67.70
75994;DHT22;64680;53.800;9.988;2024-01-10T15:23:06;-2.60;68.20
75994;DHT22;64680;53.800;9.988;2024-01-10T15:25:31;-2.60;68.70
75994;DHT22;64680;53.800;9.988;2024-01-10T15:27:57;-2.60;68.50
75994;DHT22;64680;53.800;9.988;2024-01-10T15:30:24;-2.70;69.10
75994;DHT22;64680;53.800;9.988;2024-01-10T15:32:49;-2.60;70.20